Time;durP1;ratioP1;P1;durP2;ratioP2;P2;SDS_P1;SDS_P2;PMS_P1;PMS_P2;Temp;Humidity;BMP_temperature;BMP_pressure;BME280_temperature;BME280_humidity;BME280_pressure;Samples;Min_cycle;Max_cycle;Signal;HPM_P1;HPM_P2
2021/10/08 00:00:12;;;;;;;;;18.00;17.75;;;;;14.89;60.25;102473.59;5017617;28;45222;-83
2021/10/08 00:02:39;;;;;;;;;20.00;17.25;;;;;14.89;60.84;102477.13;5019390;28;45317;-83
2021/10/08 00:05:05;;;;;;;;;17.75;15.00;;;;;14.80;60.71;102455.72;5032402;28;45526;-82
2021/10/08 00:07:30;;;;;;;;;15.00;14.75;;;;;14.93;60.67;102486.00;5016304;28;45530;-83
2021/10/08 00:09:56;;;;;;;;;19.50;16.00;;;;;14.74;60.61;102458.91;5015525;28;45453;-82
2021/10/08 00:12:22;;;;;;;;;18.75;17.50;;;;;14.80;61.26;102471.38;5017228;28;45448;-83
2021/10/08 00:14:47;;;;;;;;;18.75;17.75;;;;;14.66;61.01;102453.28;5017056;28;45425;-83
2021/10/08 00:17:13;;;;;;;;;14.50;13.00;;;;;14.70;61.20;102462.19;5017574;28;45336;-82
2021/10/08 00:19:39;;;;;;;;;17.25;14.50;;;;;14.83;61.59;102495.94;5017878;28;45378;-84
2021/10/08 00:22:04;;;;;;;;;14.25;13.75;;;;;14.69;61.08;102469.09;5017132;28;46034;-83
2021/10/08 00:24:30;;;;;;;;;13.25;12.00;;;;;14.61;61.43;102456.44;5016291;28;45369;-82
2021/10/08 00:26:56;;;;;;;;;14.50;14.50;;;;;14.75;61.14;102484.16;5019111;28;45259;-82
2021/10/08 00:29:22;;;;;;;;;16.00;15.50;;;;;14.77;61.45;102492.09;5017423;28;45525;-82
2021/10/08 00:31:48;;;;;;;;;16.50;15.50;;;;;14.61;61.33;102466.88;5016597;28;45302;-82
2021/10/08 00:34:13;;;;;;;;;15.75;14.00;;;;;14.76;61.75;102499.00;5018165;28;45506;-81
2021/10/08 00:36:39;;;;;;;;;15.00;15.00;;;;;14.74;61.19;102502.34;5024855;28;45353;-82
2021/10/08 00:39:05;;;;;;;;;17.00;15.25;;;;;14.70;61.88;102503.91;5027183;28;45632;-83
2021/10/08 00:41:31;;;;;;;;;19.25;16.00;;;;;14.66;62.14;102504.50;5018892;28;45443;-81
2021/10/08 00:43:57;;;;;;;;;16.00;16.00;;;;;14.63;61.79;102507.84;5016909;28;45600;-82
2021/10/08 00:46:23;;;;;;;;;17.25;17.00;;;;;14.55;61.63;102503.91;5033535;28;45391;-82
2021/10/08 00:48:53;;;;;;;;;19.00;15.50;;;;;14.38;62.06;102489.94;5017125;28;45539;-83
2021/10/08 00:51:21;;;;;;;;;18.00;16.50;;;;;14.49;62.01;102503.56;5017105;28;45310;-83
2021/10/08 00:53:47;;;;;;;;;19.25;17.75;;;;;14.39;61.69;102500.44;5015689;28;45978;-82
2021/10/08 00:56:15;;;;;;;;;20.25;20.25;;;;;14.31;61.78;102486.09;5016554;28;45279;-82
2021/10/08 00:58:43;;;;;;;;;17.75;16.00;;;;;14.42;62.38;102502.31;5018460;28;45436;-83
2021/10/08 01:01:09;;;;;;;;;19.00;17.25;;;;;14.29;62.06;102495.50;5016318;28;46134;-82
2021/10/08 01:03:36;;;;;;;;;18.00;17.00;;;;;14.40;62.38;102501.34;5016692;28;45296;-82
2021/10/08 01:06:02;;;;;;;;;16.00;15.25;;;;;14.36;62.22;102496.75;5015858;28;45367;-82
2021/10/08 01:08:27;;;;;;;;;20.00;17.50;;;;;14.38;62.18;102509.06;5016651;28;45453;-83
2021/10/08 01:10:53;;;;;;;;;21.50;17.25;;;;;14.37;62.73;102511.59;5016284;28;46239;-82
2021/10/08 01:13:19;;;;;;;;;19.25;17.50;;;;;14.14;62.27;102473.81;5015491;28;45394;-82
2021/10/08 01:15:45;;;;;;;;;16.00;13.75;;;;;14.09;62.51;102468.34;5015928;28;45509;-82
2021/10/08 01:18:11;;;;;;;;;19.25;19.00;;;;;14.19;62.85;102494.13;5018153;28;45299;-82
2021/10/08 01:20:38;;;;;;;;;14.50;14.50;;;;;14.26;62.98;102505.75;5031442;28;46897;-82
2021/10/08 01:23:03;;;;;;;;;19.75;16.00;;;;;14.14;62.46;102484.25;5022188;28;45162;-82
2021/10/08 01:25:33;;;;;;;;;21.50;18.75;;;;;14.18;62.80;102494.00;5024230;28;45435;-85
2021/10/08 01:28:00;;;;;;;;;16.00;14.00;;;;;14.15;62.72;102496.44;5021758;28;45308;-82
2021/10/08 01:30:26;;;;;;;;;17.50;16.50;;;;;14.09;62.82;102482.25;5017718;28;45441;-82
2021/10/08 01:32:52;;;;;;;;;19.75;18.00;;;;;14.00;62.85;102476.53;5016910;28;45774;-82
2021/10/08 01:35:18;;;;;;;;;20.50;18.25;;;;;14.03;63.12;102481.91;5016731;28;45826;-83
2021/10/08 01:37:44;;;;;;;;;24.00;21.00;;;;;14.10;63.38;102503.97;5019923;28;45581;-83
2021/10/08 01:40:11;;;;;;;;;18.50;16.75;;;;;13.94;63.49;102470.94;5018039;28;47199;-82
2021/10/08 01:42:37;;;;;;;;;21.00;20.50;;;;;13.91;63.11;102465.59;5019613;28;45398;-82
2021/10/08 01:45:04;;;;;;;;;20.00;19.75;;;;;14.02;63.56;102498.34;5019110;28;45398;-82
2021/10/08 01:47:30;;;;;;;;;20.00;16.25;;;;;13.90;63.72;102485.50;5019045;28;45506;-82
2021/10/08 01:49:55;;;;;;;;;21.00;19.00;;;;;13.85;63.49;102484.34;5019397;28;45232;-82
2021/10/08 01:52:21;;;;;;;;;18.25;17.00;;;;;13.89;63.39;102495.84;5019904;28;45232;-82
2021/10/08 01:54:47;;;;;;;;;21.00;18.00;;;;;13.92;63.26;102506.44;5020284;28;45168;-83
2021/10/08 01:57:15;;;;;;;;;20.75;18.25;;;;;13.86;63.84;102495.66;5020414;28;45351;-82
2021/10/08 01:59:40;;;;;;;;;18.00;16.50;;;;;13.81;63.70;102486.69;5020258;28;45452;-81
2021/10/08 02:02:06;;;;;;;;;18.50;17.50;;;;;13.66;63.91;102460.66;5021522;28;45348;-82
2021/10/08 02:04:31;;;;;;;;;24.00;20.25;;;;;13.75;63.67;102492.44;5019511;28;45591;-82
2021/10/08 02:06:57;;;;;;;;;21.00;18.75;;;;;13.73;64.28;102494.94;5022327;28;45371;-82
2021/10/08 02:09:23;;;;;;;;;24.25;19.50;;;;;13.72;63.83;102493.13;5024638;28;46106;-83
2021/10/08 02:11:49;;;;;;;;;24.50;21.25;;;;;13.75;63.96;102506.34;5029501;28;45331;-85
2021/10/08 02:14:14;;;;;;;;;25.75;21.75;;;;;13.69;64.37;102494.66;5027008;28;45324;-81
2021/10/08 02:16:40;;;;;;;;;16.50;16.25;;;;;13.67;64.20;102496.25;5027082;28;45234;-83
2021/10/08 02:19:06;;;;;;;;;21.25;18.00;;;;;13.62;64.35;102494.31;5021174;28;45291;-84
2021/10/08 02:21:32;;;;;;;;;22.75;18.75;;;;;13.68;63.99;102505.88;5019789;28;45757;-84
2021/10/08 02:23:58;;;;;;;;;16.50;16.25;;;;;13.69;64.11;102510.28;5020112;28;45527;-87
2021/10/08 02:26:24;;;;;;;;;21.50;19.25;;;;;13.67;64.45;102507.59;5019271;28;45290;-84
2021/10/08 02:28:49;;;;;;;;;22.00;18.50;;;;;13.59;64.34;102494.13;5019757;28;46590;-83
2021/10/08 02:31:15;;;;;;;;;21.00;17.75;;;;;13.67;64.52;102502.38;5022686;28;45512;-83
2021/10/08 02:33:42;;;;;;;;;26.00;20.75;;;;;13.58;64.43;102494.91;5023760;28;45379;-83
2021/10/08 02:36:08;;;;;;;;;20.25;17.75;;;;;13.62;64.26;102509.00;5022975;28;45583;-84
2021/10/08 02:38:35;;;;;;;;;22.25;20.50;;;;;13.58;64.60;102502.72;5019939;28;45421;-82
2021/10/08 02:41:01;;;;;;;;;22.50;20.50;;;;;13.52;64.42;102497.16;5020398;28;45795;-86
2021/10/08 02:43:27;;;;;;;;;20.00;18.50;;;;;13.42;64.49;102481.81;5035137;28;46865;-81
2021/10/08 02:45:53;;;;;;;;;24.00;19.00;;;;;13.44;64.65;102488.00;5023517;28;45590;-81
2021/10/08 02:48:19;;;;;;;;;18.50;17.75;;;;;13.42;64.88;102492.22;5022796;28;45368;-87
2021/10/08 02:50:45;;;;;;;;;18.75;17.75;;;;;13.46;65.12;102496.78;5020231;28;45360;-81
2021/10/08 02:53:11;;;;;;;;;23.50;18.00;;;;;13.46;64.79;102499.38;5020037;28;45375;-83
2021/10/08 02:55:36;;;;;;;;;17.50;17.50;;;;;13.42;64.69;102503.50;5027427;28;45372;-86
2021/10/08 02:58:02;;;;;;;;;18.75;18.75;;;;;13.26;64.74;102479.97;5024731;28;46272;-84
2021/10/08 03:00:28;;;;;;;;;20.75;17.25;;;;;13.22;64.89;102475.34;5021961;28;45557;-86
2021/10/08 03:02:53;;;;;;;;;17.00;16.25;;;;;13.30;65.06;102494.91;5021548;28;45418;-82
2021/10/08 03:05:19;;;;;;;;;22.50;17.50;;;;;13.27;64.92;102499.97;5022013;28;45399;-83
2021/10/08 03:07:45;;;;;;;;;19.25;18.00;;;;;12.99;64.94;102462.75;5021114;28;45442;-84
2021/10/08 03:10:14;;;;;;;;;17.50;16.50;;;;;13.16;65.29;102495.00;5022762;28;45374;-85
2021/10/08 03:12:42;;;;;;;;;23.75;19.25;;;;;12.95;65.20;102467.69;5022921;28;45493;-88
2021/10/08 03:15:08;;;;;;;;;18.25;18.00;;;;;13.05;65.16;102482.13;5022670;28;45485;-85
2021/10/08 03:17:34;;;;;;;;;18.50;18.50;;;;;13.03;64.94;102483.72;5035111;28;48054;-83
2021/10/08 03:20:01;;;;;;;;;20.50;18.00;;;;;13.10;65.23;102496.31;5018943;28;45877;-86
2021/10/08 03:22:27;;;;;;;;;23.00;18.50;;;;;13.02;65.38;102493.25;5018672;28;45367;-83
2021/10/08 03:24:53;;;;;;;;;23.25;19.00;;;;;12.94;65.28;102482.38;5018882;28;45557;-85
2021/10/08 03:27:20;;;;;;;;;16.00;14.00;;;;;13.03;65.44;102502.84;5024299;28;45522;-81
2021/10/08 03:29:46;;;;;;;;;19.00;14.50;;;;;12.89;65.46;102485.47;5027226;28;45345;-81
2021/10/08 03:32:11;;;;;;;;;22.75;17.50;;;;;12.97;65.63;102505.03;5025227;28;45312;-82
2021/10/08 03:34:37;;;;;;;;;15.25;13.00;;;;;12.82;65.74;102479.91;5020272;28;45332;-81
2021/10/08 03:37:11;;;;;;;;;17.50;16.75;;;;;12.95;65.58;102507.56;5023670;28;45873;-85
2021/10/08 03:39:39;;;;;;;;;18.00;18.00;;;;;12.83;65.49;102480.78;5023303;28;45425;-84
2021/10/08 03:42:05;;;;;;;;;17.00;15.50;;;;;12.94;65.58;102500.56;5021993;28;45425;-81
2021/10/08 03:44:39;;;;;;;;;19.00;18.50;;;;;12.92;65.75;102507.38;5019601;28;45620;-82
2021/10/08 03:47:19;;;;;;;;;18.50;17.00;;;;;12.87;65.83;102497.47;5018101;28;47823;-82
2021/10/08 03:49:44;;;;;;;;;22.75;17.75;;;;;12.86;65.49;102501.78;5019529;28;45343;-84
2021/10/08 03:52:10;;;;;;;;;16.50;14.75;;;;;12.93;65.64;102503.97;5019260;28;45324;-85
2021/10/08 03:54:36;;;;;;;;;19.75;18.75;;;;;12.89;65.84;102493.28;5019937;28;45345;-86
2021/10/08 03:57:02;;;;;;;;;23.25;18.50;;;;;12.95;65.74;102502.38;5018819;28;46005;-84
2021/10/08 03:59:28;;;;;;;;;20.00;17.50;;;;;12.92;65.80;102499.56;5019195;28;45390;-86
2021/10/08 04:01:55;;;;;;;;;18.00;17.75;;;;;12.95;65.65;102499.75;5018595;28;45334;-81
2021/10/08 04:04:21;;;;;;;;;20.00;16.75;;;;;12.98;65.55;102510.38;5018817;28;45303;-86
2021/10/08 04:06:48;;;;;;;;;18.00;16.25;;;;;13.01;65.70;102512.25;5019830;28;46054;-83
2021/10/08 04:09:15;;;;;;;;;20.25;18.50;;;;;13.01;65.46;102509.66;5020310;28;45181;-82
2021/10/08 04:11:40;;;;;;;;;21.25;19.00;;;;;13.01;65.53;102514.84;5022775;28;45354;-85
2021/10/08 04:14:06;;;;;;;;;14.25;13.25;;;;;12.99;65.38;102511.25;5019525;28;45298;-88
2021/10/08 04:16:36;;;;;;;;;17.50;16.00;;;;;12.98;65.45;102515.56;5017877;28;45382;-82
2021/10/08 04:19:02;;;;;;;;;21.25;19.00;;;;;12.96;65.89;102514.56;5019966;28;45285;-85
2021/10/08 04:21:29;;;;;;;;;20.25;18.75;;;;;12.98;65.58;102518.16;5018972;28;45454;-82
2021/10/08 04:23:55;;;;;;;;;21.50;18.75;;;;;12.78;65.50;102477.91;5019954;28;45590;-81
2021/10/08 04:26:20;;;;;;;;;19.25;18.25;;;;;12.84;65.83;102495.59;5020000;28;46420;-84
2021/10/08 04:28:46;;;;;;;;;23.75;22.50;;;;;12.81;65.39;102492.78;5021225;28;45307;-85
2021/10/08 04:31:12;;;;;;;;;15.75;15.75;;;;;12.69;65.55;102479.94;5020548;28;45382;-82
2021/10/08 04:33:38;;;;;;;;;19.50;19.25;;;;;12.93;65.77;102522.16;5023639;28;45295;-89
2021/10/08 04:36:04;;;;;;;;;19.00;18.25;;;;;12.90;65.25;102513.28;5021416;28;45564;-90
2021/10/08 04:38:30;;;;;;;;;20.00;18.25;;;;;12.87;65.48;102507.88;5022323;28;45479;-90
2021/10/08 04:40:57;;;;;;;;;20.00;19.00;;;;;12.89;65.71;102520.19;5022904;28;45347;-88
2021/10/08 04:43:22;;;;;;;;;23.75;19.25;;;;;12.86;65.41;102512.19;5021243;28;45335;-89
2021/10/08 04:45:48;;;;;;;;;23.50;20.75;;;;;12.87;65.70;102520.88;5019103;28;45402;-88
2021/10/08 04:48:14;;;;;;;;;18.00;15.75;;;;;12.85;65.34;102515.59;5034573;28;45226;-92
2021/10/08 04:50:40;;;;;;;;;19.75;18.25;;;;;12.61;65.61;102476.84;5020248;28;45363;-90
2021/10/08 04:53:19;;;;;;;;;24.25;18.75;;;;;12.83;65.54;102517.19;5019012;28;45394;-91
2021/10/08 04:55:47;;;;;;;;;21.00;20.25;;;;;12.82;65.34;102517.97;5019168;28;46025;-91
2021/10/08 04:58:13;;;;;;;;;19.75;18.50;;;;;12.82;65.60;102524.09;5017260;28;45756;-82
2021/10/08 05:00:39;;;;;;;;;19.50;18.00;;;;;12.81;65.58;102523.97;5019142;28;45473;-90
2021/10/08 05:03:17;;;;;;;;;20.50;19.50;;;;;12.78;65.60;102521.22;5021239;28;45164;-91
2021/10/08 05:05:47;;;;;;;;;22.50;20.75;;;;;12.67;65.62;102504.91;5024159;28;45393;-89
2021/10/08 05:08:15;;;;;;;;;18.00;16.25;;;;;12.73;65.76;102514.81;5028481;28;45545;-83
2021/10/08 05:10:41;;;;;;;;;21.25;19.50;;;;;12.59;65.65;102499.22;5025522;28;45358;-86
2021/10/08 05:13:07;;;;;;;;;19.25;18.25;;;;;12.61;65.55;102507.16;5029726;28;45516;-86
2021/10/08 05:15:33;;;;;;;;;22.00;19.00;;;;;12.68;65.64;102524.91;5023056;28;45347;-89
2021/10/08 05:17:58;;;;;;;;;23.25;19.75;;;;;12.55;65.98;102505.06;5022248;28;45402;-90
2021/10/08 05:20:24;;;;;;;;;16.50;16.25;;;;;12.66;65.73;102532.63;5019602;28;45438;-91
2021/10/08 05:22:50;;;;;;;;;21.50;21.25;;;;;12.64;65.86;102528.09;5019808;28;45306;-90
2021/10/08 05:25:16;;;;;;;;;21.00;18.25;;;;;12.56;65.77;102512.06;5019221;28;46028;-93
2021/10/08 05:27:42;;;;;;;;;21.00;19.75;;;;;12.49;65.78;102502.03;5020466;28;45726;-90
2021/10/08 05:30:11;;;;;;;;;21.25;20.25;;;;;12.64;65.75;102535.91;5019255;28;45467;-94
2021/10/08 05:32:38;;;;;;;;;23.75;22.75;;;;;12.63;65.87;102529.81;5019986;28;45492;-95
2021/10/08 05:35:04;;;;;;;;;21.00;20.75;;;;;12.60;65.86;102529.63;5018054;28;45477;-94
2021/10/08 05:37:30;;;;;;;;;20.25;18.25;;;;;12.62;65.78;102537.53;5018405;28;45871;-83
2021/10/08 05:39:56;;;;;;;;;26.25;21.50;;;;;12.51;65.61;102518.63;5052573;28;45516;-83
2021/10/08 05:42:21;;;;;;;;;22.50;21.00;;;;;12.50;65.71;102519.44;5046365;28;44979;-82
2021/10/08 05:44:47;;;;;;;;;26.25;21.00;;;;;12.58;65.68;102535.53;5046847;28;46720;-85
2021/10/08 05:47:13;;;;;;;;;23.50;22.00;;;;;12.53;65.77;102522.22;5013141;28;45334;-85
2021/10/08 05:49:39;;;;;;;;;23.50;21.75;;;;;12.59;65.78;102538.19;5032276;28;45299;-86
2021/10/08 05:52:05;;;;;;;;;22.25;22.25;;;;;12.53;65.98;102523.13;5029092;28;45534;-87
2021/10/08 05:54:33;;;;;;;;;22.00;19.50;;;;;12.57;65.84;102538.91;5031622;28;46406;-89
2021/10/08 05:56:58;;;;;;;;;21.00;21.00;;;;;12.33;65.85;102503.66;5023379;28;45387;-87
2021/10/08 05:59:24;;;;;;;;;24.75;24.50;;;;;12.36;65.91;102510.75;5020223;28;45311;-88
2021/10/08 06:01:50;;;;;;;;;24.50;21.00;;;;;12.53;66.17;102536.09;5018821;28;45306;-88
2021/10/08 06:04:15;;;;;;;;;27.75;23.75;;;;;12.44;66.02;102522.53;5035077;28;47208;-84
2021/10/08 06:06:42;;;;;;;;;25.25;22.25;;;;;12.51;65.86;102536.81;5020208;28;45164;-81
2021/10/08 06:09:07;;;;;;;;;27.75;27.25;;;;;12.49;66.05;102534.13;5017887;28;45355;-89
2021/10/08 06:11:33;;;;;;;;;25.00;23.50;;;;;12.39;65.69;102519.63;5019643;28;45376;-85
2021/10/08 06:14:00;;;;;;;;;33.75;27.50;;;;;12.53;65.70;102550.81;5021432;28;46506;-86
2021/10/08 06:16:26;;;;;;;;;38.25;33.75;;;;;12.16;65.68;102492.19;5035341;28;45355;-86
2021/10/08 06:18:52;;;;;;;;;43.00;34.00;;;;;12.50;65.51;102556.72;5022052;28;45404;-84
2021/10/08 06:21:17;;;;;;;;;36.75;32.00;;;;;12.51;65.46;102555.00;5021071;28;45428;-88
2021/10/08 06:23:43;;;;;;;;;37.00;33.25;;;;;12.41;65.83;102534.44;5020791;28;46800;-84
2021/10/08 06:26:09;;;;;;;;;36.75;32.00;;;;;12.37;65.84;102531.63;5018019;28;45408;-84
2021/10/08 06:28:34;;;;;;;;;42.00;33.25;;;;;12.06;65.69;102479.41;5019274;28;45352;-83
2021/10/08 06:31:00;;;;;;;;;33.25;31.75;;;;;12.48;65.61;102549.59;5018079;28;45436;-85
2021/10/08 06:33:26;;;;;;;;;31.25;29.75;;;;;12.35;65.75;102538.44;5035261;28;46698;-84
2021/10/08 06:35:52;;;;;;;;;30.25;27.50;;;;;12.26;65.78;102522.22;5017702;28;45467;-85
2021/10/08 06:38:18;;;;;;;;;29.00;25.75;;;;;12.19;66.02;102513.16;5032147;28;45455;-87
2021/10/08 06:40:44;;;;;;;;;32.50;27.50;;;;;12.26;65.75;102516.16;5018321;28;45356;-86
2021/10/08 06:43:10;;;;;;;;;27.25;25.00;;;;;12.38;65.89;102553.31;5020006;28;45882;-87
2021/10/08 06:45:36;;;;;;;;;29.00;26.00;;;;;12.42;65.99;102549.22;5022854;28;45473;-83
2021/10/08 06:48:02;;;;;;;;;30.00;27.25;;;;;12.43;65.85;102562.28;5036267;28;45444;-82
2021/10/08 06:50:28;;;;;;;;;27.00;25.75;;;;;12.45;66.04;102565.00;5020115;28;45602;-80
2021/10/08 06:52:54;;;;;;;;;27.50;23.50;;;;;12.15;65.88;102518.94;5025868;28;45948;-88
2021/10/08 06:55:20;;;;;;;;;29.25;27.25;;;;;12.29;66.17;102537.13;5038613;28;45495;-87
2021/10/08 06:57:45;;;;;;;;;32.25;27.50;;;;;12.48;65.90;102571.31;5022938;28;45440;-86
2021/10/08 07:00:12;;;;;;;;;28.25;25.75;;;;;12.36;65.96;102547.13;5019079;28;45354;-86
2021/10/08 07:02:51;;;;;;;;;31.75;26.00;;;;;12.51;66.32;102578.38;5019261;28;45556;-86
2021/10/08 07:05:18;;;;;;;;;28.25;27.25;;;;;12.51;66.20;102576.72;5034339;28;45283;-86
2021/10/08 07:07:45;;;;;;;;;32.50;29.25;;;;;12.45;66.26;102560.69;5018143;28;45430;-85
2021/10/08 07:10:11;;;;;;;;;32.75;29.25;;;;;12.45;65.98;102555.50;5018593;28;45553;-86
2021/10/08 07:12:36;;;;;;;;;30.25;28.00;;;;;12.51;66.49;102563.72;5034340;28;47100;-86
2021/10/08 07:15:05;;;;;;;;;40.00;32.25;;;;;12.62;66.63;102577.38;5033142;28;45538;-82
2021/10/08 07:17:31;;;;;;;;;36.50;30.00;;;;;12.52;66.60;102556.81;5020139;28;45493;-84
2021/10/08 07:19:56;;;;;;;;;32.50;30.50;;;;;12.49;66.56;102544.53;5037857;28;45497;-83
2021/10/08 07:22:22;;;;;;;;;33.50;32.00;;;;;12.75;66.85;102583.38;5020212;28;45665;-83
2021/10/08 07:24:49;;;;;;;;;36.75;29.25;;;;;12.74;66.91;102572.06;5021539;28;45421;-82
2021/10/08 07:27:16;;;;;;;;;42.25;32.25;;;;;12.77;66.99;102572.28;5014977;28;45418;-80
2021/10/08 07:29:42;;;;;;;;;40.50;33.75;;;;;12.88;67.23;102588.56;5018629;28;45532;-82
2021/10/08 07:32:08;;;;;;;;;40.50;31.50;;;;;12.88;67.28;102577.25;5017784;28;46965;-79
2021/10/08 07:34:34;;;;;;;;;35.25;31.75;;;;;12.95;67.22;102585.56;5018319;28;45688;-79
2021/10/08 07:36:59;;;;;;;;;35.00;31.00;;;;;12.96;66.89;102570.84;5019933;28;45397;-84
2021/10/08 07:39:25;;;;;;;;;34.75;30.25;;;;;13.06;67.10;102580.13;5016824;28;45376;-82
2021/10/08 07:41:51;;;;;;;;;35.75;31.75;;;;;13.09;67.13;102581.22;5016502;28;45908;-83
2021/10/08 07:44:17;;;;;;;;;38.00;31.50;;;;;13.13;67.00;102583.22;5015938;28;45566;-81
2021/10/08 07:46:43;;;;;;;;;30.25;29.75;;;;;13.21;66.72;102586.31;5017373;28;45314;-78
2021/10/08 07:49:09;;;;;;;;;36.50;32.50;;;;;13.25;66.94;102590.88;5020459;28;45317;-88
2021/10/08 07:51:34;;;;;;;;;34.00;32.00;;;;;13.27;66.99;102589.28;5020266;28;47342;-84
2021/10/08 07:54:00;;;;;;;;;40.75;33.50;;;;;13.22;67.31;102566.38;5018253;28;45343;-80
2021/10/08 07:56:26;;;;;;;;;31.50;27.75;;;;;13.30;67.36;102572.97;5016880;28;45446;-80
2021/10/08 07:58:52;;;;;;;;;36.25;33.00;;;;;13.29;66.80;102563.34;5017371;28;45521;-80
2021/10/08 08:01:18;;;;;;;;;37.50;30.75;;;;;13.46;66.62;102593.97;5019531;28;45566;-81
2021/10/08 08:03:44;;;;;;;;;43.25;33.00;;;;;13.49;66.92;102582.84;4999845;28;45823;-80
2021/10/08 08:06:11;;;;;;;;;34.50;31.00;;;;;13.52;66.68;102584.72;5019227;28;45210;-82
2021/10/08 08:08:37;;;;;;;;;35.25;31.25;;;;;13.53;66.37;102584.84;5018491;28;45613;-84
2021/10/08 08:11:02;;;;;;;;;37.50;32.50;;;;;13.54;66.20;102576.22;5020231;28;45599;-82
2021/10/08 08:13:28;;;;;;;;;34.25;30.50;;;;;13.51;66.42;102568.22;5017589;28;45460;-82
2021/10/08 08:15:54;;;;;;;;;35.00;30.25;;;;;13.67;66.82;102585.69;5017869;28;45319;-84
2021/10/08 08:18:28;;;;;;;;;36.50;31.50;;;;;13.58;66.70;102559.09;5039175;28;45458;-88
2021/10/08 08:20:54;;;;;;;;;35.00;30.25;;;;;13.51;66.97;102544.81;5023280;28;47876;-86
2021/10/08 08:23:19;;;;;;;;;30.50;29.00;;;;;13.58;66.37;102546.97;5018913;28;45480;-83
2021/10/08 08:25:45;;;;;;;;;34.25;29.50;;;;;13.75;66.44;102566.22;5017681;28;45296;-85
2021/10/08 08:28:11;;;;;;;;;28.25;23.25;;;;;13.90;66.21;102579.22;5019586;28;45260;-94
2021/10/08 08:30:39;;;;;;;;;32.25;30.00;;;;;13.78;65.93;102552.47;5016430;28;46677;-85
2021/10/08 08:33:05;;;;;;;;;32.50;30.25;;;;;13.81;65.83;102554.38;5016504;28;45827;-85
2021/10/08 08:35:31;;;;;;;;;20.75;20.00;;;;;13.74;65.49;102537.50;5017083;28;45588;-86
2021/10/08 08:37:56;;;;;;;;;25.50;23.25;;;;;13.71;65.88;102527.81;5016332;28;45520;-86
2021/10/08 08:40:24;;;;;;;;;31.25;22.50;;;;;13.71;65.44;102517.38;5018220;28;45436;-86
2021/10/08 08:42:53;;;;;;;;;25.25;23.50;;;;;13.83;65.97;102532.81;5034432;28;45413;-86
2021/10/08 08:45:18;;;;;;;;;23.75;23.00;;;;;14.13;65.66;102579.69;5018491;28;45361;-86
2021/10/08 08:48:00;;;;;;;;;22.50;21.25;;;;;14.04;64.98;102561.81;5020417;28;45396;-85
2021/10/08 08:50:27;;;;;;;;;20.25;20.00;;;;;14.20;64.88;102576.63;5021309;28;46934;-83
2021/10/08 08:52:54;;;;;;;;;21.75;20.50;;;;;14.22;65.19;102568.94;5038408;28;45408;-82
2021/10/08 08:55:20;;;;;;;;;18.50;17.25;;;;;14.18;64.90;102561.72;5020277;28;45270;-83
2021/10/08 08:57:46;;;;;;;;;20.50;19.00;;;;;14.29;64.50;102576.28;5016965;28;45597;-78
2021/10/08 09:00:13;;;;;;;;;25.00;21.50;;;;;14.27;64.34;102570.09;5014624;28;46074;-78
2021/10/08 09:02:43;;;;;;;;;21.50;17.75;;;;;14.22;64.38;102553.31;5016680;28;45659;-78
2021/10/08 09:05:17;;;;;;;;;23.75;21.50;;;;;14.34;63.89;102567.03;5018904;28;45311;-77
2021/10/08 09:07:43;;;;;;;;;21.75;18.25;;;;;14.40;64.28;102564.78;5017758;28;45338;-80
2021/10/08 09:10:17;;;;;;;;;19.75;18.00;;;;;14.36;64.42;102554.97;5014973;28;46366;-79
2021/10/08 09:12:45;;;;;;;;;21.25;18.75;;;;;14.24;63.77;102526.53;5016172;28;45395;-86
2021/10/08 09:15:12;;;;;;;;;25.50;21.25;;;;;14.50;64.37;102563.59;5015796;28;45441;-80
2021/10/08 09:17:38;;;;;;;;;20.75;19.75;;;;;14.51;64.13;102560.19;5030972;28;45578;-80
2021/10/08 09:20:05;;;;;;;;;20.75;17.75;;;;;14.55;63.79;102564.75;5013796;28;45539;-86
2021/10/08 09:22:38;;;;;;;;;19.50;17.25;;;;;14.58;63.76;102556.19;5016521;28;45711;-81
2021/10/08 09:25:15;;;;;;;;;18.50;17.25;;;;;14.55;63.44;102537.78;5011035;28;45335;-84
2021/10/08 09:27:46;;;;;;;;;20.25;19.75;;;;;14.66;63.49;102556.63;5020584;28;45395;-83
2021/10/08 09:30:12;;;;;;;;;21.75;18.00;;;;;14.70;62.86;102558.66;5018668;28;46254;-81
2021/10/08 09:32:46;;;;;;;;;20.75;19.25;;;;;14.74;63.33;102555.38;5019074;28;45294;-86
2021/10/08 09:35:15;;;;;;;;;19.00;16.75;;;;;14.64;63.03;102535.69;5026863;28;45276;-88
2021/10/08 09:37:42;;;;;;;;;19.75;17.75;;;;;14.73;63.13;102540.56;5027667;28;45401;-85
2021/10/08 09:40:32;;;;;;;;;20.25;18.50;;;;;14.84;63.01;102555.09;5016959;28;46072;-80
2021/10/08 09:43:23;;;;;;;;;19.75;19.75;;;;;14.87;62.93;102549.16;4995944;28;45851;-81
2021/10/08 09:46:05;;;;;;;;;19.50;18.00;;;;;14.90;62.79;102543.19;4995684;28;45343;-81
2021/10/08 09:48:42;;;;;;;;;21.00;19.50;;;;;14.95;62.96;102546.97;5010507;28;45699;-81
2021/10/08 09:51:16;;;;;;;;;22.00;20.00;;;;;14.99;62.88;102547.22;5016096;28;45397;-85
2021/10/08 09:53:46;;;;;;;;;23.00;18.75;;;;;15.04;62.97;102547.47;5015264;28;45988;-85
2021/10/08 09:56:32;;;;;;;;;29.75;24.50;;;;;15.07;62.59;102541.50;5011406;28;45489;-86
2021/10/08 09:58:59;;;;;;;;;17.75;17.75;;;;;15.11;62.95;102544.38;5021437;28;45422;-86
2021/10/08 10:01:27;;;;;;;;;19.50;17.00;;;;;14.89;62.36;102503.19;5014554;28;47612;-90
2021/10/08 10:03:54;;;;;;;;;18.75;17.00;;;;;15.11;62.42;102528.72;5003391;28;45345;-86
2021/10/08 10:06:20;;;;;;;;;14.00;13.25;;;;;15.22;61.94;102531.91;5019506;28;45248;-90
2021/10/08 10:08:49;;;;;;;;;15.00;14.50;;;;;15.17;61.58;102521.22;5010900;28;45475;-90
2021/10/08 10:11:24;;;;;;;;;16.50;16.00;;;;;15.25;62.07;102526.84;5017858;28;47174;-82
2021/10/08 10:13:53;;;;;;;;;15.00;14.00;;;;;15.26;61.58;102518.19;5017940;28;45356;-89
2021/10/08 10:16:19;;;;;;;;;17.25;15.25;;;;;15.35;61.52;102522.09;5037540;28;45363;-78
2021/10/08 10:18:52;;;;;;;;;19.50;15.25;;;;;15.39;61.17;102513.63;5025019;28;45669;-90
2021/10/08 10:21:22;;;;;;;;;11.75;11.75;;;;;15.41;59.93;102512.00;5014891;28;47010;-91
2021/10/08 10:23:56;;;;;;;;;12.00;11.00;;;;;15.32;60.16;102482.00;5013050;28;45444;-91
2021/10/08 10:26:24;;;;;;;;;12.25;12.25;;;;;15.44;60.45;102488.69;5025137;28;45330;-91
2021/10/08 10:28:50;;;;;;;;;19.25;14.25;;;;;15.45;59.95;102485.22;5028696;28;45353;-88
2021/10/08 10:31:17;;;;;;;;;13.00;13.00;;;;;15.62;59.92;102504.38;5023202;28;46935;-86
2021/10/08 10:33:43;;;;;;;;;11.75;11.00;;;;;15.54;59.18;102476.97;5023785;28;45785;-88
2021/10/08 10:36:22;;;;;;;;;5.50;5.50;;;;;15.61;59.15;102481.69;5021174;28;45365;-91
2021/10/08 10:38:48;;;;;;;;;11.75;10.50;;;;;15.71;58.44;102480.44;5023563;28;45381;-89
2021/10/08 10:41:14;;;;;;;;;10.25;10.25;;;;;15.89;58.09;102506.63;5043110;28;47049;-89
2021/10/08 10:43:46;;;;;;;;;9.25;9.25;;;;;15.78;58.03;102479.94;5031370;28;44784;-86
2021/10/08 10:46:41;;;;;;;;;12.00;11.75;;;;;15.95;58.08;102509.53;5031396;28;45317;-87
2021/10/08 10:51:56;;;;;;;;;9.25;9.25;;;;;16.02;57.70;102506.44;5019170;28;45365;-84
2021/10/08 10:57:32;;;;;;;;;12.25;12.00;;;;;16.03;57.76;102487.34;5020701;28;45398;-85
2021/10/08 11:00:24;;;;;;;;;12.75;11.00;;;;;16.16;57.05;102501.88;5029233;28;45626;-91
2021/10/08 11:03:07;;;;;;;;;10.50;10.50;;;;;16.19;57.17;102499.44;5020184;28;47859;-84
2021/10/08 11:05:37;;;;;;;;;8.50;7.00;;;;;16.17;57.06;102487.09;5022706;28;45336;-84
2021/10/08 11:08:15;;;;;;;;;9.00;9.00;;;;;16.09;57.15;102474.56;5023808;28;45330;-91
2021/10/08 11:11:00;;;;;;;;;7.00;7.00;;;;;16.19;57.13;102485.44;5020071;28;45465;-84
2021/10/08 11:13:28;;;;;;;;;9.75;9.25;;;;;16.26;56.76;102495.38;5007151;28;45790;-88
2021/10/08 11:16:04;;;;;;;;;10.00;9.75;;;;;16.28;56.74;102480.66;5018490;28;45931;-85